createdAt,value
2023-03-23T15:59:47.165Z,15.42
2023-03-23T16:02:21.865Z,15.44
2023-03-23T16:04:50.698Z,15.31
2023-03-23T16:07:23.611Z,15.32
2023-03-23T16:09:52.029Z,15.31
2023-03-23T16:12:22.343Z,15.26
2023-03-23T16:14:51.307Z,15.25
2023-03-23T16:17:21.879Z,15.23
2023-03-23T16:19:50.477Z,15.21
2023-03-23T16:22:18.981Z,15.17
2023-03-23T16:24:47.533Z,15.16
2023-03-23T16:27:16.240Z,15.14
2023-03-23T16:30:02.178Z,15.15
2023-03-23T16:32:45.561Z,15.13
2023-03-23T16:35:18.370Z,15.14
2023-03-23T16:37:47.927Z,15.16
2023-03-23T16:40:23.119Z,15.19
2023-03-23T16:42:51.858Z,15.16
2023-03-23T16:45:24.197Z,15.10
2023-03-23T16:47:55.162Z,15.06
2023-03-23T16:50:27.995Z,15.07
2023-03-23T16:52:57.436Z,15.02
2023-03-23T16:55:27.381Z,14.94
2023-03-23T16:58:13.256Z,14.86
2023-03-23T17:00:49.001Z,14.82
2023-03-23T17:03:18.719Z,14.80
2023-03-23T17:05:49.443Z,14.61
2023-03-23T17:08:18.150Z,14.73
2023-03-23T17:11:51.467Z,14.79
2023-03-23T17:14:19.988Z,14.69
2023-03-23T17:16:49.734Z,14.68
2023-03-23T17:19:18.223Z,14.69
2023-03-23T17:21:46.897Z,14.68
2023-03-23T17:24:16.905Z,14.67
2023-03-23T17:26:47.211Z,14.68
2023-03-23T17:29:23.262Z,14.71
2023-03-23T17:31:53.693Z,14.73
2023-03-23T17:34:22.253Z,14.72
2023-03-23T17:36:51.821Z,14.73
2023-03-23T17:39:20.677Z,14.73
2023-03-23T17:41:49.261Z,14.70
2023-03-23T17:44:18.013Z,14.68
2023-03-23T17:46:47.078Z,14.21
2023-03-23T17:49:18.601Z,14.65
2023-03-23T17:51:47.449Z,14.59
2023-03-23T17:54:15.988Z,14.49
2023-03-23T17:56:45.579Z,14.42
2023-03-23T17:59:14.334Z,14.38
2023-03-23T18:01:50.120Z,14.34
2023-03-23T18:04:20.310Z,14.29
2023-03-23T18:06:48.818Z,14.25
2023-03-23T18:09:17.745Z,14.24
2023-03-23T18:11:47.403Z,14.21
2023-03-23T18:14:18.359Z,14.19
2023-03-23T18:16:47.603Z,14.65
2023-03-23T18:19:17.469Z,14.39
2023-03-23T18:21:48.539Z,14.26
2023-03-23T18:24:17.466Z,14.18
2023-03-23T18:26:47.650Z,14.11
2023-03-23T18:29:17.142Z,14.09
2023-03-23T18:31:47.905Z,14.06
2023-03-23T18:34:19.780Z,14.06
2023-03-23T18:37:49.150Z,13.99
2023-03-23T18:40:35.259Z,13.88
2023-03-23T18:43:04.127Z,13.83
2023-03-23T19:03:31.153Z,13.33
2023-03-23T19:06:00.656Z,13.39
2023-03-23T19:08:29.898Z,13.42
2023-03-23T19:11:01.087Z,13.44
2023-03-23T19:13:30.835Z,13.43
2023-03-23T19:15:59.425Z,13.39
2023-03-23T19:18:28.130Z,13.37
2023-03-23T19:23:30.721Z,13.35
2023-03-23T19:25:59.373Z,13.36
2023-03-23T19:31:00.309Z,13.32
2023-03-23T19:33:29.308Z,13.29
2023-03-23T19:36:09.095Z,13.27
2023-03-23T19:38:40.085Z,13.22
2023-03-23T19:41:08.763Z,13.23
2023-03-23T19:43:37.858Z,13.25
2023-03-23T19:46:06.641Z,13.24
2023-03-23T19:48:35.038Z,13.28
2023-03-23T19:51:05.015Z,13.28
2023-03-23T19:53:33.482Z,13.24
2023-03-23T19:56:03.649Z,13.24
2023-03-23T19:58:34.580Z,13.24
2023-03-23T20:01:03.001Z,13.22
2023-03-23T20:03:31.378Z,13.22
2023-03-23T20:06:01.378Z,13.20
2023-03-23T20:08:31.741Z,13.19
2023-03-23T20:11:05.734Z,13.12
2023-03-23T20:13:34.283Z,13.14
2023-03-23T20:16:03.259Z,13.14
2023-03-23T20:18:31.984Z,13.10
2023-03-23T20:21:04.762Z,13.08
2023-03-23T20:23:35.822Z,13.05
2023-03-23T20:26:07.261Z,13.03
2023-03-23T20:28:36.083Z,12.99
2023-03-23T20:31:18.770Z,12.97
2023-03-23T20:34:01.083Z,12.93
2023-03-23T20:36:35.155Z,12.92
2023-03-23T20:39:08.162Z,12.95
2023-03-23T20:41:38.900Z,12.94
2023-03-23T20:44:09.296Z,12.91
2023-03-23T20:46:37.808Z,12.91
2023-03-23T20:49:06.572Z,12.92
2023-03-23T20:51:35.088Z,12.92
2023-03-23T20:54:06.157Z,12.90
2023-03-23T20:56:35.759Z,12.92
2023-03-23T20:59:05.826Z,12.90
2023-03-23T21:01:34.485Z,12.91
2023-03-23T21:04:03.461Z,12.88
2023-03-23T21:06:34.123Z,12.82
2023-03-23T21:09:03.844Z,12.79
2023-03-23T21:11:35.330Z,12.83
2023-03-23T21:14:04.531Z,12.83
2023-03-23T21:16:32.964Z,12.84
2023-03-23T21:19:01.749Z,12.88
2023-03-23T21:21:30.369Z,12.92
2023-03-23T21:23:59.193Z,12.96
2023-03-23T21:26:29.767Z,12.98
2023-03-23T21:29:01.075Z,12.82
2023-03-23T21:31:32.009Z,12.97
2023-03-23T21:34:00.467Z,12.97
2023-03-23T21:36:29.827Z,12.94
2023-03-23T21:38:58.873Z,12.93
2023-03-23T21:41:30.127Z,12.94
2023-03-23T21:44:12.203Z,12.92
2023-03-23T21:46:42.144Z,13.01
2023-03-23T21:49:14.288Z,13.00
2023-03-23T21:51:44.039Z,12.99
2023-03-23T21:54:13.413Z,12.95
2023-03-23T21:56:42.017Z,12.92
2023-03-23T21:59:11.758Z,12.89
2023-03-23T22:01:40.652Z,12.91
2023-03-23T22:04:09.313Z,12.93
2023-03-23T22:06:38.061Z,12.92
2023-03-23T22:09:07.138Z,12.76
2023-03-23T22:11:35.682Z,12.94
2023-03-23T22:14:04.464Z,12.95
2023-03-23T22:16:34.549Z,12.95
2023-03-23T22:19:03.421Z,12.92
2023-03-23T22:21:32.029Z,12.89
2023-03-23T22:24:02.056Z,12.71
2023-03-23T22:26:31.381Z,12.89
2023-03-23T22:29:01.041Z,12.88
2023-03-23T22:31:32.722Z,12.89
2023-03-23T22:34:03.292Z,12.88
2023-03-23T22:36:33.457Z,12.88
2023-03-23T22:39:02.609Z,12.89
2023-03-23T22:41:33.690Z,12.92
2023-03-23T22:44:03.547Z,12.91
2023-03-23T22:46:32.090Z,12.93
2023-03-23T22:49:00.772Z,12.96
2023-03-23T22:51:30.835Z,12.99
2023-03-23T22:53:59.606Z,13.01
2023-03-23T22:56:28.127Z,13.01
2023-03-23T22:58:59.034Z,13.04
2023-03-23T23:01:29.031Z,13.06
2023-03-23T23:03:58.870Z,13.07
2023-03-23T23:06:27.790Z,13.08
2023-03-23T23:08:57.820Z,13.07
2023-03-23T23:11:27.889Z,13.07
2023-03-23T23:13:57.624Z,13.08
2023-03-23T23:16:27.932Z,13.05
2023-03-23T23:18:57.084Z,13.02
2023-03-23T23:21:27.278Z,13.01
2023-03-23T23:23:55.774Z,12.98
2023-03-23T23:26:25.767Z,12.96
2023-03-23T23:28:54.399Z,12.94
2023-03-23T23:31:26.359Z,12.92
2023-03-23T23:33:57.052Z,12.72
2023-03-23T23:36:30.531Z,12.87
2023-03-23T23:39:00.296Z,12.86
2023-03-23T23:41:30.986Z,12.85
2023-03-23T23:44:00.093Z,12.71
2023-03-23T23:46:30.729Z,12.87
2023-03-23T23:48:59.866Z,12.87
2023-03-23T23:51:28.868Z,12.73
2023-03-23T23:53:59.257Z,12.77
2023-03-23T23:56:29.499Z,12.84
2023-03-23T23:58:58.747Z,12.65
